Time;durP1;ratioP1;P1;durP2;ratioP2;P2;SDS_P1;SDS_P2;PMS_P1;PMS_P2;Temp;Humidity;BMP_temperature;BMP_pressure;BME280_temperature;BME280_humidity;BME280_pressure;Samples;Min_cycle;Max_cycle;Signal;HPM_P1;HPM_P2
2023/07/19 00:00:21;;;;;;;;;1.75;1.75;;;;;24.21;37.95;101249.53;5020712;28;69606;-45
2023/07/19 00:02:46;;;;;;;;;3.67;2.67;;;;;24.20;37.58;101254.13;5021779;28;45401;-47
2023/07/19 00:05:12;;;;;;;;;2.33;2.00;;;;;24.11;38.08;101250.47;5021022;28;57908;-48
2023/07/19 00:07:37;;;;;;;;;2.00;2.00;;;;;24.05;37.66;101255.66;5021414;28;46340;-49
2023/07/19 00:10:04;;;;;;;;;3.00;2.00;;;;;23.98;38.12;101251.88;5020599;28;63328;-45
2023/07/19 00:12:31;;;;;;;;;3.33;3.00;;;;;23.97;37.85;101250.16;5021387;28;45428;-45
2023/07/19 00:14:56;;;;;;;;;2.33;2.33;;;;;23.93;38.49;101255.88;5021444;28;45482;-48
2023/07/19 00:17:21;;;;;;;;;2.00;2.00;;;;;23.91;38.47;101255.22;5021226;28;46101;-46
2023/07/19 00:19:47;;;;;;;;;1.00;1.00;;;;;23.89;38.25;101250.91;5020329;28;68606;-46
2023/07/19 00:22:12;;;;;;;;;3.33;3.00;;;;;23.87;38.50;101251.06;5020595;28;60347;-49
2023/07/19 00:24:37;;;;;;;;;2.00;2.00;;;;;23.84;38.20;101255.94;5021339;28;51090;-47
2023/07/19 00:27:03;;;;;;;;;1.67;1.67;;;;;23.81;38.63;101262.53;5020060;28;73418;-49
2023/07/19 00:29:28;;;;;;;;;2.00;2.00;;;;;23.77;38.35;101247.56;5021079;28;45210;-49
2023/07/19 00:31:53;;;;;;;;;1.75;1.75;;;;;23.73;38.39;101254.28;5021283;28;45344;-46
2023/07/19 00:34:19;;;;;;;;;1.67;1.67;;;;;23.70;38.35;101260.88;5020314;28;69183;-46
2023/07/19 00:36:44;;;;;;;;;1.00;1.00;;;;;23.68;38.52;101259.31;5020982;28;45338;-49
2023/07/19 00:39:10;;;;;;;;;2.00;2.00;;;;;23.67;38.86;101257.63;5021106;28;45433;-47
2023/07/19 00:41:35;;;;;;;;;2.67;2.67;;;;;23.66;38.39;101254.03;5020735;28;45396;-46
2023/07/19 00:44:00;;;;;;;;;2.33;1.33;;;;;23.66;38.86;101250.47;5021249;28;45403;-45
2023/07/19 00:46:27;;;;;;;;;2.00;2.00;;;;;23.64;38.65;101250.63;5019789;28;73029;-46
2023/07/19 00:48:53;;;;;;;;;2.00;2.00;;;;;23.62;38.45;101244.47;5019637;28;45463;-46
2023/07/19 00:51:18;;;;;;;;;2.00;2.00;;;;;23.58;38.69;101243.94;5021050;28;45708;-46
2023/07/19 00:53:47;;;;;;;;;3.00;1.00;;;;;23.53;39.08;101240.84;5019210;28;45378;-47
2023/07/19 00:56:13;;;;;;;;;1.00;1.00;;;;;23.50;39.16;101241.13;5010355;28;45345;-46
2023/07/19 00:58:39;;;;;;;;;1.33;1.33;;;;;23.48;39.02;101259.44;5020013;28;69369;-47
2023/07/19 01:01:06;;;;;;;;;4.67;3.00;;;;;23.46;39.14;101247.84;5020626;28;45308;-48
2023/07/19 01:03:31;;;;;;;;;2.00;2.00;;;;;23.46;39.56;101261.44;5020442;28;45218;-45
2023/07/19 01:05:58;;;;;;;;;3.00;2.00;;;;;23.44;39.24;101263.41;5019509;28;74347;-45
2023/07/19 01:08:24;;;;;;;;;1.00;1.00;;;;;23.43;39.26;101253.59;5020363;28;45284;-47
2023/07/19 01:10:49;;;;;;;;;2.00;2.00;;;;;23.40;39.41;101253.88;5019518;28;45348;-45
2023/07/19 01:13:14;;;;;;;;;2.00;2.00;;;;;23.37;39.38;101252.31;5019664;28;67915;-46
2023/07/19 01:15:40;;;;;;;;;2.00;2.00;;;;;23.32;39.69;101246.47;5018486;28;68640;-46
2023/07/19 01:18:06;;;;;;;;;2.33;2.33;;;;;23.29;39.65;101241.38;5020404;28;45453;-47
2023/07/19 01:20:32;;;;;;;;;5.00;2.00;;;;;23.24;39.71;101246.38;5020406;28;45398;-49
2023/07/19 01:22:58;;;;;;;;;1.67;1.67;;;;;23.21;39.86;101255.69;5020456;28;45523;-44
2023/07/19 01:25:23;;;;;;;;;2.00;2.00;;;;;23.16;40.11;101254.41;5020255;28;46978;-47
2023/07/19 01:27:49;;;;;;;;;2.67;2.67;;;;;23.14;40.01;101262.72;5020026;28;45625;-46
2023/07/19 01:30:15;;;;;;;;;2.00;2.00;;;;;23.12;40.16;101261.97;5020257;28;45472;-50
2023/07/19 01:32:40;;;;;;;;;2.00;2.00;;;;;23.08;40.14;101261.41;5020643;28;45392;-45
2023/07/19 01:35:06;;;;;;;;;4.00;3.00;;;;;23.06;40.09;101259.84;5019960;28;46248;-46
2023/07/19 01:37:31;;;;;;;;;2.33;2.33;;;;;23.05;40.26;101260.81;5020406;28;45432;-47
2023/07/19 01:39:57;;;;;;;;;2.00;2.00;;;;;23.01;40.26;101252.16;5019891;28;45458;-46
2023/07/19 01:42:22;;;;;;;;;2.33;2.33;;;;;22.95;40.02;101256.28;5019438;28;45282;-48
2023/07/19 01:44:47;;;;;;;;;3.00;3.00;;;;;22.91;40.70;101260.31;5019961;28;45895;-46
2023/07/19 01:47:13;;;;;;;;;2.67;1.33;;;;;22.88;40.49;101268.75;5019113;28;72348;-46
2023/07/19 01:49:39;;;;;;;;;3.00;2.00;;;;;22.84;40.37;101267.31;5019694;28;45391;-49
2023/07/19 01:52:05;;;;;;;;;2.00;2.00;;;;;22.78;40.67;101267.91;5020021;28;45400;-49
2023/07/19 01:54:30;;;;;;;;;2.00;2.00;;;;;22.73;40.86;101272.91;5016783;28;45332;-49
2023/07/19 01:56:56;;;;;;;;;2.00;2.00;;;;;22.70;41.02;101273.22;5012536;28;61873;-47
2023/07/19 01:59:21;;;;;;;;;2.00;2.00;;;;;22.70;41.00;101276.75;5018907;28;65832;-47
2023/07/19 02:01:46;;;;;;;;;4.33;2.00;;;;;22.71;40.96;101278.47;5019502;28;54438;-48
2023/07/19 02:04:12;;;;;;;;;5.00;2.00;;;;;22.71;41.03;101281.19;5018302;28;75127;-46
2023/07/19 02:06:37;;;;;;;;;3.33;2.67;;;;;22.70;40.87;101282.19;5019923;28;45471;-46
2023/07/19 02:09:02;;;;;;;;;2.67;1.67;;;;;22.69;40.89;101271.50;5019987;28;68270;-49
2023/07/19 02:11:28;;;;;;;;;3.00;3.00;;;;;22.67;41.13;101271.63;5020364;28;53917;-48
2023/07/19 02:13:53;;;;;;;;;2.00;2.00;;;;;22.63;41.05;101278.31;5019738;28;53892;-49
2023/07/19 02:16:18;;;;;;;;;4.00;2.00;;;;;22.63;40.92;101271.06;5019757;28;45221;-46
2023/07/19 02:18:44;;;;;;;;;4.00;3.00;;;;;22.60;41.14;101278.63;5018691;28;67663;-46
2023/07/19 02:21:09;;;;;;;;;4.00;2.00;;;;;22.57;40.99;101282.47;5018807;28;70583;-46
2023/07/19 02:23:34;;;;;;;;;3.67;2.00;;;;;22.52;40.88;101279.34;5018479;28;71838;-49
2023/07/19 02:26:00;;;;;;;;;4.00;2.67;;;;;22.49;41.43;101281.47;5019324;28;45422;-45
2023/07/19 02:28:25;;;;;;;;;4.00;3.00;;;;;22.45;41.56;101278.22;5019317;28;45395;-47
2023/07/19 02:30:51;;;;;;;;;1.00;1.00;;;;;22.42;41.11;101278.47;5018389;28;68545;-46
2023/07/19 02:33:16;;;;;;;;;3.00;1.67;;;;;22.40;41.42;101285.91;5019438;28;46782;-47
2023/07/19 02:35:42;;;;;;;;;2.33;2.00;;;;;22.37;41.61;101281.63;5019085;28;54256;-45
2023/07/19 02:38:08;;;;;;;;;2.33;2.33;;;;;22.31;42.08;101288.44;5019946;28;45352;-51
2023/07/19 02:40:33;;;;;;;;;2.67;1.67;;;;;22.30;41.60;101288.56;5018251;28;45561;-49
2023/07/19 02:42:59;;;;;;;;;1.33;1.33;;;;;22.26;42.32;101284.44;5018873;28;45546;-47
2023/07/19 02:45:24;;;;;;;;;2.33;2.00;;;;;22.25;42.00;101296.28;5019067;28;51303;-46
2023/07/19 02:47:50;;;;;;;;;3.00;3.00;;;;;22.21;42.93;101302.97;5019391;28;45391;-47
2023/07/19 02:50:20;;;;;;;;;2.00;2.00;;;;;22.17;42.88;101294.25;5019273;28;46251;-49
2023/07/19 02:52:46;;;;;;;;;2.33;2.33;;;;;22.15;43.04;101293.56;5019164;28;45350;-45
2023/07/19 02:55:12;;;;;;;;;4.00;3.33;;;;;22.12;42.15;101300.13;5010977;28;45344;-45
2023/07/19 02:57:38;;;;;;;;;4.00;4.00;;;;;22.06;42.95;101299.78;5017308;28;45257;-45
2023/07/19 03:00:04;;;;;;;;;4.00;4.00;;;;;21.94;43.31;101299.06;5019463;28;45417;-47
2023/07/19 03:02:29;;;;;;;;;2.67;2.67;;;;;21.85;43.74;101306.19;5018947;28;46220;-44
2023/07/19 03:04:55;;;;;;;;;2.33;2.33;;;;;21.80;43.75;101301.19;5019053;28;45356;-45
2023/07/19 03:07:21;;;;;;;;;4.00;2.67;;;;;21.72;43.91;101313.69;5019316;28;45553;-47
2023/07/19 03:09:46;;;;;;;;;4.00;3.00;;;;;21.63;44.40;101310.81;5019600;28;45416;-48
2023/07/19 03:12:12;;;;;;;;;6.33;3.67;;;;;21.53;44.02;101318.00;5017617;28;45856;-45
2023/07/19 03:14:38;;;;;;;;;3.33;2.00;;;;;21.47;45.17;101314.00;5019107;28;45739;-44
2023/07/19 03:17:03;;;;;;;;;2.67;2.67;;;;;21.41;45.02;101316.41;5020001;28;45284;-48
2023/07/19 03:19:28;;;;;;;;;2.67;2.00;;;;;21.28;45.42;101322.03;5020970;28;45486;-45
2023/07/19 03:21:54;;;;;;;;;4.00;2.33;;;;;21.26;45.28;101315.88;5022095;28;45282;-44
2023/07/19 03:24:19;;;;;;;;;4.00;2.00;;;;;21.21;45.34;101313.59;5021026;28;73158;-49
2023/07/19 03:26:44;;;;;;;;;4.00;3.00;;;;;21.13;45.95;101321.50;5022046;28;45438;-50
2023/07/19 03:29:10;;;;;;;;;2.33;2.33;;;;;21.04;45.58;101322.28;5021439;28;65451;-47
2023/07/19 03:31:35;;;;;;;;;4.00;4.00;;;;;20.94;45.97;101317.69;5022104;28;46117;-46
2023/07/19 03:34:02;;;;;;;;;2.00;2.00;;;;;20.87;46.05;101321.03;5021111;28;69658;-47
2023/07/19 03:36:27;;;;;;;;;3.33;3.00;;;;;20.81;46.31;101320.59;5022331;28;45350;-47
2023/07/19 03:38:53;;;;;;;;;3.67;1.67;;;;;20.78;46.36;101319.97;5021994;28;45447;-47
2023/07/19 03:41:18;;;;;;;;;4.33;3.00;;;;;20.73;47.00;101325.78;5021026;28;66085;-45
2023/07/19 03:43:43;;;;;;;;;2.00;2.00;;;;;20.70;46.23;101330.59;5021168;28;70539;-45
2023/07/19 03:46:09;;;;;;;;;2.00;2.00;;;;;20.63;46.26;101331.06;5022091;28;45442;-47
2023/07/19 03:48:35;;;;;;;;;2.00;2.00;;;;;20.64;46.92;101334.66;5021999;28;45491;-47
2023/07/19 03:51:01;;;;;;;;;3.00;2.00;;;;;20.61;46.08;101337.59;5021677;28;46190;-44
2023/07/19 03:53:28;;;;;;;;;2.00;2.00;;;;;20.57;46.61;101342.41;5021634;28;45425;-45
2023/07/19 03:55:57;;;;;;;;;1.00;1.00;;;;;20.56;46.28;101347.94;5011551;28;45328;-45
2023/07/19 03:58:26;;;;;;;;;2.00;2.00;;;;;20.52;46.33;101343.78;5021750;28;45464;-45
2023/07/19 04:00:57;;;;;;;;;3.00;2.00;;;;;20.47;45.72;101346.88;5021431;28;46242;-48
2023/07/19 04:03:24;;;;;;;;;1.00;1.00;;;;;20.42;46.69;101355.34;5021559;28;45400;-45
2023/07/19 04:05:50;;;;;;;;;1.67;1.67;;;;;20.40;46.43;101353.75;5021693;28;45376;-48
2023/07/19 04:08:16;;;;;;;;;3.00;1.67;;;;;20.33;46.56;101362.38;5021699;28;45418;-46
2023/07/19 04:10:42;;;;;;;;;1.33;1.33;;;;;20.30;47.01;101356.38;5021563;28;46893;-48
2023/07/19 04:13:09;;;;;;;;;1.00;1.00;;;;;20.27;46.30;101364.72;5020192;28;45466;-46
2023/07/19 04:15:34;;;;;;;;;2.33;2.00;;;;;20.23;46.33;101363.25;5021854;28;45287;-45
2023/07/19 04:18:00;;;;;;;;;1.67;1.67;;;;;20.22;46.60;101364.25;5021699;28;45431;-46
2023/07/19 04:20:26;;;;;;;;;1.00;1.00;;;;;20.18;46.31;101360.97;5021526;28;45955;-45
2023/07/19 04:22:51;;;;;;;;;1.00;1.00;;;;;20.14;46.04;101363.03;5021257;28;45252;-44
2023/07/19 04:25:18;;;;;;;;;1.00;1.00;;;;;20.12;46.05;101369.56;5021385;28;45479;-45
2023/07/19 04:27:43;;;;;;;;;2.00;1.00;;;;;20.08;46.77;101366.25;5020989;28;45435;-45
2023/07/19 04:30:09;;;;;;;;;3.67;1.00;;;;;20.08;46.13;101366.25;5021003;28;46408;-45
2023/07/19 04:32:34;;;;;;;;;0.33;0.33;;;;;20.09;46.25;101373.34;5021312;28;45426;-45
2023/07/19 04:34:59;;;;;;;;;1.00;1.00;;;;;20.09;46.46;101375.19;5020088;28;65548;-45
2023/07/19 04:37:25;;;;;;;;;3.00;1.33;;;;;20.10;46.32;101366.09;5021303;28;45538;-46
2023/07/19 04:39:50;;;;;;;;;1.00;1.00;;;;;20.12;46.24;101380.34;5020011;28;74164;-46
2023/07/19 04:42:21;;;;;;;;;2.33;1.00;;;;;20.13;45.94;101374.81;5020895;28;45466;-46
2023/07/19 04:44:46;;;;;;;;;1.00;1.00;;;;;20.11;46.32;101384.03;5021205;28;45636;-45
2023/07/19 04:47:12;;;;;;;;;1.00;1.00;;;;;20.14;46.32;101378.38;5020127;28;69129;-46
2023/07/19 04:49:37;;;;;;;;;1.00;1.00;;;;;20.16;46.22;101388.06;5020654;28;45392;-44
2023/07/19 04:52:03;;;;;;;;;2.00;2.00;;;;;20.19;46.52;101392.34;5020154;28;71353;-48
2023/07/19 04:54:28;;;;;;;;;0.67;0.67;;;;;20.24;46.30;101387.44;5020821;28;45446;-46
2023/07/19 04:56:54;;;;;;;;;0.67;0.67;;;;;20.29;45.99;101392.47;5020888;28;45399;-49
2023/07/19 04:59:19;;;;;;;;;1.00;1.00;;;;;20.30;46.10;101384.25;5018453;28;72658;-46
2023/07/19 05:01:44;;;;;;;;;1.33;1.33;;;;;20.32;46.04;101385.00;5020871;28;45444;-45
2023/07/19 05:04:10;;;;;;;;;1.00;1.00;;;;;20.39;46.25;101397.97;5019843;28;66164;-47
2023/07/19 05:06:35;;;;;;;;;1.00;0.33;;;;;20.41;45.98;101390.59;5020568;28;46720;-44
2023/07/19 05:09:00;;;;;;;;;2.00;2.00;;;;;20.45;46.35;101386.66;5019744;28;73387;-46
2023/07/19 05:11:26;;;;;;;;;2.00;1.67;;;;;20.44;46.38;101384.94;5020332;28;45426;-44
2023/07/19 05:13:51;;;;;;;;;1.00;1.00;;;;;20.47;46.46;101390.09;5019794;28;67186;-46
2023/07/19 05:16:17;;;;;;;;;1.00;1.00;;;;;20.49;46.29;101390.81;5019828;28;71572;-46
2023/07/19 05:18:42;;;;;;;;;1.00;1.00;;;;;20.50;46.24;101389.84;5019160;28;75746;-48
2023/07/19 05:21:08;;;;;;;;;1.00;1.00;;;;;20.55;45.83;101394.88;5020370;28;45398;-44
2023/07/19 05:23:33;;;;;;;;;0.67;0.67;;;;;20.58;45.81;101384.66;5018191;28;63931;-45
2023/07/19 05:25:59;;;;;;;;;3.33;1.67;;;;;20.63;45.70;101398.63;5020406;28;45337;-45
2023/07/19 05:28:24;;;;;;;;;1.67;1.00;;;;;20.72;46.06;101391.63;5020178;28;45926;-47
2023/07/19 05:30:49;;;;;;;;;1.00;1.00;;;;;20.81;45.72;101392.72;5019690;28;67260;-47
2023/07/19 05:33:15;;;;;;;;;1.67;1.67;;;;;20.92;46.36;101394.50;5019298;28;62039;-45
2023/07/19 05:35:42;;;;;;;;;3.00;1.00;;;;;20.98;46.26;101392.13;5020484;28;45333;-45
2023/07/19 05:38:07;;;;;;;;;2.00;2.00;;;;;21.03;45.37;101399.88;5020106;28;45485;-46
2023/07/19 05:40:33;;;;;;;;;1.00;1.00;;;;;21.08;46.12;101399.47;5019566;28;45404;-44
2023/07/19 05:42:58;;;;;;;;;3.00;1.33;;;;;21.12;45.75;101400.94;5019078;28;68861;-45
2023/07/19 05:45:23;;;;;;;;;2.00;1.33;;;;;21.17;45.79;101400.53;5019417;28;67559;-46
2023/07/19 05:47:49;;;;;;;;;2.67;2.67;;;;;21.22;45.45;101404.53;5019071;28;71599;-44
2023/07/19 05:50:14;;;;;;;;;4.33;3.00;;;;;21.29;45.38;101399.50;5019564;28;45484;-46
2023/07/19 05:52:39;;;;;;;;;3.67;2.33;;;;;21.23;45.47;101403.56;5019096;28;69572;-45
2023/07/19 05:55:07;;;;;;;;;3.33;2.67;;;;;21.24;45.38;101407.97;5011888;28;63006;-46
2023/07/19 05:57:32;;;;;;;;;3.00;2.00;;;;;21.21;45.14;101413.66;5017213;28;46039;-44
2023/07/19 06:00:13;;;;;;;;;1.00;1.00;;;;;21.20;45.85;101416.47;5019009;28;67334;-45
2023/07/19 06:02:39;;;;;;;;;3.00;0.33;;;;;21.23;45.53;101422.50;5019786;28;45418;-44
2023/07/19 06:05:05;;;;;;;;;2.00;1.33;;;;;21.21;45.97;101415.50;5018492;28;45709;-44
2023/07/19 06:07:31;;;;;;;;;1.33;1.00;;;;;21.27;45.73;101426.66;5019100;28;45328;-49
2023/07/19 06:09:56;;;;;;;;;2.00;2.00;;;;;21.26;46.08;101422.25;5018807;28;70994;-48
2023/07/19 06:12:21;;;;;;;;;1.67;1.00;;;;;21.26;46.25;101422.25;5018746;28;67049;-44
2023/07/19 06:14:47;;;;;;;;;2.00;1.00;;;;;21.35;46.69;101422.44;5018806;28;69278;-47
2023/07/19 06:17:12;;;;;;;;;3.00;2.00;;;;;21.41;46.59;101425.47;5019344;28;54245;-46
2023/07/19 06:19:37;;;;;;;;;2.00;1.00;;;;;21.46;46.45;101423.22;5018821;28;68094;-45
2023/07/19 06:22:03;;;;;;;;;2.67;1.67;;;;;21.57;45.93;101419.59;5019762;28;45411;-46
2023/07/19 06:24:28;;;;;;;;;1.00;1.00;;;;;21.64;45.96;101430.75;5019395;28;45316;-46
2023/07/19 06:26:54;;;;;;;;;2.67;2.00;;;;;21.72;46.38;101425.53;5018311;28;63325;-45
2023/07/19 06:29:21;;;;;;;;;1.00;1.00;;;;;21.85;46.63;101425.31;5019370;28;45443;-49
2023/07/19 06:31:47;;;;;;;;;2.33;1.00;;;;;22.01;46.29;101423.97;5019481;28;45373;-44
2023/07/19 06:34:12;;;;;;;;;2.00;1.00;;;;;22.19;45.78;101425.03;5018956;28;53269;-47
2023/07/19 06:36:37;;;;;;;;;3.33;1.00;;;;;22.33;46.21;101415.63;5018203;28;71068;-45
2023/07/19 06:39:03;;;;;;;;;2.33;1.00;;;;;22.59;46.00;101416.03;5019470;28;45344;-45
2023/07/19 06:41:28;;;;;;;;;0.00;0.00;;;;;24.34;45.06;101412.22;5018257;28;67899;-45
2023/07/19 06:43:54;;;;;;;;;1.00;1.00;;;;;27.37;41.91;101408.56;5018540;28;68369;-44
2023/07/19 06:46:19;;;;;;;;;2.67;2.00;;;;;30.49;36.68;101408.28;5019267;28;46979;-44
2023/07/19 06:48:46;;;;;;;;;3.00;2.00;;;;;32.87;34.36;101398.34;5019178;28;45281;-48
2023/07/19 06:51:12;;;;;;;;;0.67;0.67;;;;;35.03;31.37;101417.63;5019212;28;45385;-46
2023/07/19 06:53:37;;;;;;;;;1.33;1.33;;;;;36.75;29.36;101423.31;5022695;28;45610;-45
2023/07/19 06:56:04;;;;;;;;;1.67;1.33;;;;;38.42;27.33;101420.47;5010736;28;46097;-49
2023/07/19 06:58:30;;;;;;;;;2.00;1.00;;;;;39.35;25.90;101418.19;5022429;28;45439;-46
2023/07/19 07:00:56;;;;;;;;;1.33;1.33;;;;;40.59;21.43;101425.34;5022608;28;45448;-48
2023/07/19 07:03:22;;;;;;;;;0.00;0.00;;;;;41.53;22.67;101432.53;5022566;28;46285;-46
2023/07/19 07:05:47;;;;;;;;;0.75;0.75;;;;;42.48;22.34;101421.16;5021516;28;58237;-49
2023/07/19 07:08:13;;;;;;;;;0.50;0.50;;;;;43.20;20.77;101427.91;5022536;28;45361;-46
2023/07/19 07:10:41;;;;;;;;;1.75;1.75;;;;;43.58;20.31;101434.00;5021190;28;45535;-47
2023/07/19 07:13:06;;;;;;;;;1.00;0.00;;;;;43.59;20.36;101424.50;5022507;28;45373;-44
2023/07/19 07:15:31;;;;;;;;;0.00;0.00;;;;;43.43;19.64;101429.25;5022398;28;46127;-44
2023/07/19 07:17:57;;;;;;;;;0.00;0.00;;;;;43.74;19.29;101434.78;5021681;28;63427;-45
2023/07/19 07:20:22;;;;;;;;;0.00;0.00;;;;;44.18;19.26;101441.59;5022632;28;45439;-47
2023/07/19 07:22:47;;;;;;;;;0.00;0.00;;;;;44.77;17.94;101434.22;5021455;28;45668;-50
2023/07/19 07:25:13;;;;;;;;;0.50;0.00;;;;;44.50;18.56;101429.94;5020909;28;46674;-48
2023/07/19 07:27:38;;;;;;;;;0.00;0.00;;;;;44.64;18.76;101432.06;5021924;28;45374;-49
2023/07/19 07:30:04;;;;;;;;;0.00;0.00;;;;;44.17;17.44;101425.91;5021421;28;60462;-47
2023/07/19 07:32:30;;;;;;;;;1.50;0.00;;;;;43.01;18.20;101420.06;5022299;28;45418;-46
2023/07/19 07:34:56;;;;;;;;;2.00;0.00;;;;;42.20;18.65;101425.25;5021764;28;46310;-48
2023/07/19 07:37:21;;;;;;;;;0.00;0.00;;;;;41.12;18.97;101425.53;5021921;28;45420;-45
2023/07/19 07:39:46;;;;;;;;;0.00;0.00;;;;;39.23;20.18;101431.38;5022073;28;45166;-47
2023/07/19 07:42:12;;;;;;;;;1.50;0.00;;;;;37.43;21.36;101427.78;5021247;28;64185;-48
2023/07/19 07:44:37;;;;;;;;;0.00;0.00;;;;;35.72;22.82;101430.56;5022111;28;46211;-47
2023/07/19 07:47:03;;;;;;;;;2.00;0.75;;;;;33.97;24.57;101431.78;5021982;28;45344;-45
2023/07/19 07:49:28;;;;;;;;;0.00;0.00;;;;;32.49;25.80;101428.13;5021959;28;45681;-49
2023/07/19 07:51:53;;;;;;;;;0.00;0.00;;;;;31.43;26.81;101434.75;5021439;28;61457;-45
2023/07/19 07:54:20;;;;;;;;;1.00;1.00;;;;;30.49;28.00;101439.34;5018659;28;70527;-45
2023/07/19 07:56:45;;;;;;;;;0.00;0.00;;;;;29.82;29.03;101438.41;5012703;28;45308;-48
2023/07/19 07:59:10;;;;;;;;;0.25;0.25;;;;;29.28;29.35;101442.22;5021812;28;45301;-44
2023/07/19 08:01:36;;;;;;;;;1.00;1.00;;;;;28.83;30.14;101436.56;5021164;28;63321;-46
2023/07/19 08:04:02;;;;;;;;;1.00;1.00;;;;;28.51;31.08;101434.84;5021121;28;46238;-49
2023/07/19 08:06:27;;;;;;;;;2.00;0.75;;;;;28.26;31.31;101437.72;5020284;28;45376;-46
2023/07/19 08:08:53;;;;;;;;;0.25;0.25;;;;;28.08;31.29;101440.69;5021699;28;45347;-45
2023/07/19 08:11:21;;;;;;;;;1.50;1.00;;;;;27.81;31.39;101429.16;5021407;28;45561;-46
2023/07/19 08:13:46;;;;;;;;;0.00;0.00;;;;;27.43;32.35;101438.97;5021445;28;46432;-45
2023/07/19 08:16:13;;;;;;;;;0.50;0.50;;;;;27.32;33.10;101440.16;5021395;28;45417;-46
2023/07/19 08:18:38;;;;;;;;;0.00;0.00;;;;;27.61;32.54;101436.88;5020209;28;45422;-44
2023/07/19 08:21:05;;;;;;;;;1.75;0.75;;;;;27.66;32.52;101434.47;5021434;28;45531;-46
2023/07/19 08:23:30;;;;;;;;;0.25;0.00;;;;;27.51;32.87;101437.09;5021122;28;46376;-44
2023/07/19 08:25:56;;;;;;;;;2.00;2.00;;;;;27.37;32.79;101440.50;5020564;28;62897;-46
2023/07/19 08:28:24;;;;;;;;;2.00;2.00;;;;;27.29;33.20;101435.88;5021095;28;45518;-45
2023/07/19 08:30:49;;;;;;;;;2.00;1.00;;;;;27.22;33.41;101437.59;5021021;28;45575;-46
2023/07/19 08:33:14;;;;;;;;;1.00;1.00;;;;;27.09;33.56;101443.56;5020877;28;46283;-45
2023/07/19 08:35:40;;;;;;;;;1.00;1.00;;;;;26.94;33.41;101439.81;5020354;28;64430;-44
2023/07/19 08:38:05;;;;;;;;;2.00;2.00;;;;;26.86;33.35;101429.75;5020868;28;45668;-48
2023/07/19 08:40:34;;;;;;;;;1.25;1.25;;;;;27.20;33.40;101435.03;5019214;28;61789;-48
2023/07/19 08:43:07;;;;;;;;;1.00;1.00;;;;;27.10;33.31;101436.22;5020498;28;45510;-45
2023/07/19 08:45:36;;;;;;;;;1.00;1.00;;;;;26.84;33.61;101435.38;5020993;28;45286;-49
2023/07/19 08:48:01;;;;;;;;;3.25;1.00;;;;;26.94;33.69;101428.91;5003021;28;45449;-45
2023/07/19 08:50:27;;;;;;;;;3.33;1.33;;;;;27.10;33.23;101439.81;5020740;28;45312;-47
2023/07/19 08:52:53;;;;;;;;;2.25;0.75;;;;;26.92;33.06;101431.78;5019502;28;45495;-46
2023/07/19 08:55:20;;;;;;;;;4.00;1.00;;;;;28.05;32.62;101432.88;5011501;28;45276;-45
2023/07/19 08:57:46;;;;;;;;;2.00;2.00;;;;;30.50;29.69;101423.72;5020446;28;45427;-45
2023/07/19 09:00:15;;;;;;;;;2.67;1.67;;;;;33.60;26.98;101414.03;5019571;28;45364;-46
2023/07/19 09:02:41;;;;;;;;;1.50;1.50;;;;;36.24;25.73;101416.34;5020534;28;47370;-46
2023/07/19 09:05:07;;;;;;;;;2.75;1.75;;;;;37.30;22.59;101421.38;5019426;28;66298;-45
2023/07/19 09:07:34;;;;;;;;;0.75;0.75;;;;;35.96;22.62;101430.75;5020424;28;45476;-47
2023/07/19 09:09:59;;;;;;;;;0.50;0.50;;;;;34.58;24.06;101420.47;5019745;28;45423;-46
2023/07/19 09:12:25;;;;;;;;;1.25;1.00;;;;;34.03;24.09;101423.66;5019500;28;55724;-46
2023/07/19 09:14:50;;;;;;;;;2.25;1.00;;;;;32.88;24.84;101427.59;5018142;28;45404;-50
2023/07/19 09:17:16;;;;;;;;;1.25;0.50;;;;;32.65;25.88;101434.31;5020432;28;45400;-46
2023/07/19 09:19:42;;;;;;;;;2.50;1.50;;;;;34.83;25.18;101423.25;5019004;28;51378;-47
2023/07/19 09:22:09;;;;;;;;;1.00;1.00;;;;;37.12;22.61;101424.22;5020386;28;45415;-46
2023/07/19 09:24:34;;;;;;;;;5.25;0.50;;;;;38.71;20.89;101411.00;5020385;28;45458;-47
2023/07/19 09:27:00;;;;;;;;;1.50;0.50;;;;;40.13;20.55;101417.31;5019480;28;53609;-45
2023/07/19 09:29:33;;;;;;;;;1.75;1.50;;;;;41.11;18.62;101412.69;5020297;28;45497;-45
2023/07/19 09:32:00;;;;;;;;;0.00;0.00;;;;;41.69;18.58;101409.13;5019997;28;46213;-48
2023/07/19 09:34:36;;;;;;;;;1.00;1.00;;;;;40.95;18.10;101420.09;5019895;28;45668;-45
2023/07/19 09:37:02;;;;;;;;;0.00;0.00;;;;;38.68;19.05;101405.09;5002292;28;45496;-48
2023/07/19 09:39:33;;;;;;;;;1.75;1.00;;;;;37.70;20.32;101423.38;5020311;28;45344;-47
2023/07/19 09:42:00;;;;;;;;;2.25;0.50;;;;;36.72;20.72;101423.78;5019562;28;45549;-48
2023/07/19 09:44:26;;;;;;;;;0.25;0.25;;;;;36.83;20.66;101426.84;5019926;28;45466;-45
2023/07/19 09:46:53;;;;;;;;;1.75;1.75;;;;;37.86;20.30;101427.38;5020036;28;45620;-46
2023/07/19 09:49:18;;;;;;;;;1.75;0.50;;;;;38.78;20.23;101423.91;5019772;28;45423;-48
2023/07/19 09:51:44;;;;;;;;;1.75;1.00;;;;;40.28;19.27;101415.81;5018744;28;45603;-46
2023/07/19 09:54:11;;;;;;;;;1.00;1.00;;;;;41.42;17.74;101421.31;5019728;28;45439;-48
2023/07/19 09:56:38;;;;;;;;;1.00;1.00;;;;;41.73;17.56;101415.84;5009735;28;45325;-50
2023/07/19 09:59:07;;;;;;;;;3.50;2.25;;;;;42.38;17.16;101412.75;5019711;28;45832;-48
2023/07/19 10:01:34;;;;;;;;;0.50;0.50;;;;;41.63;16.78;101410.22;5018635;28;45442;-46
2023/07/19 10:03:59;;;;;;;;;2.25;1.50;;;;;40.01;17.42;101402.66;5019680;28;45375;-47
2023/07/19 10:06:31;;;;;;;;;2.75;2.75;;;;;38.48;19.09;101416.69;5019698;28;45408;-46
2023/07/19 10:09:30;;;;;;;;;2.75;1.25;;;;;37.58;19.09;101417.03;5017877;28;45426;-48
2023/07/19 10:12:05;;;;;;;;;1.00;1.00;;;;;36.02;20.05;101411.34;5019247;28;45460;-47
2023/07/19 10:14:32;;;;;;;;;2.00;2.00;;;;;34.93;21.56;101412.59;5001868;28;45567;-46
2023/07/19 10:17:03;;;;;;;;;4.25;3.25;;;;;34.73;21.55;101418.25;5019925;28;45447;-47
2023/07/19 10:19:29;;;;;;;;;1.00;1.00;;;;;34.52;22.35;101415.81;5019693;28;45384;-46
2023/07/19 10:22:05;;;;;;;;;1.75;1.75;;;;;33.99;22.24;101423.28;5019236;28;46559;-47
2023/07/19 10:24:32;;;;;;;;;2.50;2.00;;;;;33.53;22.81;101407.66;5019291;28;45320;-46
2023/07/19 10:27:49;;;;;;;;;1.00;0.00;;;;;33.69;23.12;101412.75;5021749;28;45456;-48
2023/07/19 10:30:15;;;;;;;;;1.50;0.25;;;;;33.99;22.54;101412.25;5017736;28;45388;-49
2023/07/19 10:32:40;;;;;;;;;1.67;1.00;;;;;33.74;22.71;101417.59;5022833;28;47015;-45
2023/07/19 10:35:06;;;;;;;;;1.00;1.00;;;;;33.20;23.43;101416.81;5021252;28;50823;-46
2023/07/19 10:37:31;;;;;;;;;2.25;2.25;;;;;32.61;23.67;101420.13;5022600;28;49447;-46
2023/07/19 10:39:56;;;;;;;;;3.50;2.00;;;;;32.14;24.45;101419.94;5022775;28;45536;-48
2023/07/19 10:42:22;;;;;;;;;2.50;1.50;;;;;31.82;24.92;101419.59;5022302;28;56132;-47
2023/07/19 10:44:47;;;;;;;;;1.50;1.50;;;;;32.08;24.67;101426.25;5022829;28;45364;-48
2023/07/19 10:47:14;;;;;;;;;2.50;1.00;;;;;31.91;25.14;101423.00;5023013;28;45425;-50
2023/07/19 10:49:40;;;;;;;;;1.00;1.00;;;;;32.63;24.56;101426.28;5022722;28;45547;-47
2023/07/19 10:52:05;;;;;;;;;0.75;0.75;;;;;33.36;23.72;101416.38;5021971;28;63413;-47
2023/07/19 10:54:31;;;;;;;;;3.00;2.00;;;;;33.72;23.18;101412.28;5022586;28;45453;-51
2023/07/19 10:56:57;;;;;;;;;1.33;1.00;;;;;33.77;23.24;101419.94;5022208;28;50381;-46
2023/07/19 10:59:22;;;;;;;;;1.25;1.25;;;;;33.76;23.44;101421.81;5022872;28;45402;-49
2023/07/19 11:01:50;;;;;;;;;1.25;1.25;;;;;33.74;23.33;101418.44;5021553;28;45430;-48
2023/07/19 11:04:18;;;;;;;;;4.33;4.33;;;;;33.70;23.56;101419.09;5020495;28;45836;-50
2023/07/19 11:06:59;;;;;;;;;4.00;3.33;;;;;33.55;23.36;101422.94;5022370;28;45427;-47
2023/07/19 11:09:25;;;;;;;;;4.00;4.00;;;;;33.42;23.40;101412.78;5010833;28;45408;-51
2023/07/19 11:11:50;;;;;;;;;3.00;3.00;;;;;33.34;23.63;101421.28;5020397;28;46078;-48
2023/07/19 11:14:33;;;;;;;;;0.67;0.67;;;;;33.53;23.42;101414.03;5000985;28;45473;-45
2023/07/19 11:16:59;;;;;;;;;2.33;2.33;;;;;33.47;23.20;101407.47;5019958;28;45431;-49
2023/07/19 11:19:51;;;;;;;;;2.00;2.00;;;;;33.58;23.58;101416.97;5022146;28;45347;-49